createdAt,value
2019-05-01T00:00:26.699Z,50.30
2019-05-01T00:03:24.287Z,50.30
2019-05-01T00:05:56.368Z,50.40
2019-05-01T00:08:24.926Z,50.30
2019-05-01T00:10:53.605Z,50.40
2019-05-01T00:13:22.533Z,50.40
2019-05-01T00:15:51.564Z,50.40
2019-05-01T00:18:20.242Z,50.40
2019-05-01T00:20:48.662Z,50.30
2019-05-01T00:23:17.310Z,50.60
2019-05-01T00:25:46.062Z,50.60
2019-05-01T00:28:15.066Z,50.60
2019-05-01T00:30:43.826Z,50.40
2019-05-01T00:33:12.475Z,50.70
2019-05-01T00:35:41.095Z,50.70
2019-05-01T00:38:11.958Z,50.80
2019-05-01T00:40:40.720Z,50.70
2019-05-01T00:43:09.616Z,50.50
2019-05-01T00:45:38.290Z,50.50
2019-05-01T00:48:06.706Z,50.50
2019-05-01T00:50:35.694Z,50.60
2019-05-01T00:53:04.645Z,50.70
2019-05-01T00:55:52.562Z,50.60
2019-05-01T00:58:49.356Z,50.70
2019-05-01T01:01:35.928Z,50.90
2019-05-01T01:04:04.692Z,51.10
2019-05-01T01:06:33.402Z,51.10
2019-05-01T01:09:01.872Z,51.20
2019-05-01T01:11:30.528Z,51.30
2019-05-01T01:13:59.305Z,51.50
2019-05-01T01:16:27.714Z,51.50
2019-05-01T01:18:56.214Z,51.40
2019-05-01T01:21:25.399Z,51.30
2019-05-01T01:23:53.778Z,51.20
2019-05-01T01:26:23.035Z,51.40
2019-05-01T01:28:51.932Z,51.60
2019-05-01T01:31:20.370Z,51.70
2019-05-01T01:33:50.662Z,51.60
2019-05-01T01:36:19.011Z,51.80
2019-05-01T01:38:49.511Z,51.90
2019-05-01T01:41:18.656Z,51.80
2019-05-01T01:44:04.492Z,51.80
2019-05-01T01:46:34.349Z,52.00
2019-05-01T01:49:03.241Z,52.00
2019-05-01T01:51:32.067Z,51.90
2019-05-01T01:54:01.708Z,53.10
2019-05-01T01:56:31.025Z,54.10
2019-05-01T01:58:59.781Z,54.50
2019-05-01T02:01:54.127Z,54.40
2019-05-01T02:04:45.813Z,54.10
2019-05-01T02:07:14.258Z,54.10
2019-05-01T02:09:43.178Z,54.50
2019-05-01T02:12:12.690Z,55.20
2019-05-01T02:14:41.517Z,55.80
2019-05-01T02:17:10.541Z,55.80
2019-05-01T02:19:39.200Z,55.40
2019-05-01T02:22:07.896Z,55.20
2019-05-01T02:24:36.860Z,55.10
2019-05-01T02:27:11.995Z,55.20
2019-05-01T02:29:46.365Z,55.40
2019-05-01T02:32:18.053Z,55.40
2019-05-01T02:34:51.222Z,55.10
2019-05-01T02:37:22.733Z,54.90
2019-05-01T02:39:57.710Z,55.10
2019-05-01T02:42:31.774Z,55.30
2019-05-01T02:45:03.686Z,55.30
2019-05-01T02:47:35.177Z,55.20
2019-05-01T02:50:11.178Z,55.20
2019-05-01T02:52:42.668Z,55.40
2019-05-01T02:55:21.186Z,55.80
2019-05-01T02:57:51.004Z,56.10
2019-05-01T03:00:19.593Z,56.50
2019-05-01T03:02:48.803Z,56.40
2019-05-01T03:05:17.816Z,56.50
2019-05-01T03:07:46.605Z,56.70
2019-05-01T03:10:16.092Z,56.50
2019-05-01T03:12:48.954Z,56.00
2019-05-01T03:15:21.867Z,55.90
2019-05-01T03:18:05.391Z,56.00
2019-05-01T03:20:57.294Z,56.50
2019-05-01T03:23:45.385Z,55.80
2019-05-01T03:26:14.874Z,55.90
2019-05-01T03:28:45.016Z,55.90
2019-05-01T03:31:13.849Z,56.30
2019-05-01T03:33:42.736Z,55.80
2019-05-01T03:36:12.573Z,55.80
2019-05-01T03:38:41.658Z,56.00
2019-05-01T03:41:12.191Z,55.70
2019-05-01T03:43:40.973Z,55.80
2019-05-01T03:46:10.167Z,55.60
2019-05-01T03:48:39.092Z,55.60
2019-05-01T03:51:08.102Z,56.60
2019-05-01T03:53:36.798Z,56.10
2019-05-01T03:56:06.034Z,56.30
2019-05-01T03:58:34.531Z,56.50
2019-05-01T04:01:20.147Z,56.60
2019-05-01T04:03:54.936Z,56.70
2019-05-01T04:06:23.683Z,56.90
2019-05-01T04:08:52.690Z,57.20
2019-05-01T04:11:21.740Z,57.30
2019-05-01T04:13:50.862Z,57.20
2019-05-01T04:16:20.727Z,57.10
2019-05-01T04:18:49.511Z,57.30
2019-05-01T04:21:20.964Z,57.30
2019-05-01T04:23:50.192Z,57.00
2019-05-01T04:26:18.969Z,57.00
2019-05-01T04:29:03.667Z,57.10
2019-05-01T04:31:45.783Z,57.20
2019-05-01T04:34:32.999Z,57.40
2019-05-01T04:37:05.684Z,57.90
2019-05-01T04:39:34.506Z,58.20
2019-05-01T04:42:04.553Z,58.30
2019-05-01T04:44:33.205Z,58.80
2019-05-01T04:47:02.845Z,58.40
2019-05-01T04:49:31.702Z,58.00
2019-05-01T04:52:00.833Z,58.10
2019-05-01T04:54:29.921Z,58.00
2019-05-01T04:56:59.127Z,57.80
2019-05-01T04:59:27.619Z,57.50
2019-05-01T05:01:59.703Z,57.60
2019-05-01T05:04:29.388Z,57.20
2019-05-01T05:06:59.223Z,57.40
2019-05-01T05:09:41.430Z,57.30
2019-05-01T05:12:17.208Z,57.50
2019-05-01T05:14:50.545Z,57.70
2019-05-01T05:17:21.409Z,57.30
2019-05-01T05:19:50.187Z,57.60
2019-05-01T05:22:19.055Z,57.90
2019-05-01T05:24:47.983Z,57.90
2019-05-01T05:27:17.897Z,57.60
2019-05-01T05:29:50.709Z,57.20
2019-05-01T05:32:23.834Z,57.00
2019-05-01T05:34:56.179Z,56.60
2019-05-01T05:37:31.641Z,56.40
2019-05-01T05:40:02.054Z,55.40
2019-05-01T05:42:33.287Z,55.60
2019-05-01T05:45:02.776Z,55.10
2019-05-01T05:47:32.207Z,54.80
2019-05-01T05:50:01.222Z,54.40
2019-05-01T05:52:38.200Z,54.90
2019-05-01T05:55:26.469Z,55.10
2019-05-01T05:58:02.625Z,55.40
2019-05-01T06:01:00.897Z,55.00
2019-05-01T06:03:59.548Z,54.40
2019-05-01T06:06:44.624Z,54.00
2019-05-01T06:09:16.533Z,54.40
2019-05-01T06:12:08.927Z,54.20
2019-05-01T06:14:49.683Z,53.90
2019-05-01T06:17:32.927Z,53.60
2019-05-01T06:20:25.954Z,53.30
2019-05-01T06:23:10.138Z,53.10
2019-05-01T06:25:43.437Z,53.30
2019-05-01T06:28:13.559Z,52.70
2019-05-01T06:30:47.041Z,52.40
2019-05-01T06:33:14.139Z,52.30
2019-05-01T06:35:42.487Z,52.20
2019-05-01T06:38:15.926Z,51.60
2019-05-01T06:40:47.616Z,51.10
2019-05-01T06:43:37.067Z,51.40
2019-05-01T06:46:27.217Z,51.50
2019-05-01T06:49:01.389Z,52.20
2019-05-01T06:51:43.438Z,52.20
2019-05-01T06:54:16.223Z,51.80
2019-05-01T06:56:46.105Z,51.10
2019-05-01T06:59:16.434Z,51.10
2019-05-01T07:01:46.938Z,50.50
2019-05-01T07:04:15.743Z,51.50
2019-05-01T07:06:44.471Z,50.50
2019-05-01T07:09:27.130Z,50.40
2019-05-01T07:11:47.548Z,49.50
2019-05-01T07:14:17.429Z,49.50
2019-05-01T07:16:45.857Z,48.90
2019-05-01T07:19:16.791Z,48.80
2019-05-01T07:21:45.497Z,49.00
2019-05-01T07:24:14.594Z,48.40
2019-05-01T07:26:43.960Z,48.60
2019-05-01T07:29:16.854Z,48.30
2019-05-01T07:31:45.679Z,45.80
2019-05-01T07:34:16.639Z,46.30
2019-05-01T07:36:45.678Z,46.70
2019-05-01T07:39:15.920Z,45.60
2019-05-01T07:41:45.222Z,43.80
2019-05-01T07:44:23.313Z,42.10
2019-05-01T07:47:14.954Z,39.30
2019-05-01T07:49:54.667Z,36.80
2019-05-01T07:52:24.647Z,33.60
2019-05-01T07:54:54.970Z,33.80
2019-05-01T07:57:24.036Z,33.50
2019-05-01T07:59:52.766Z,31.60
2019-05-01T08:02:21.353Z,31.50
2019-05-01T08:04:49.905Z,31.70
2019-05-01T08:07:18.822Z,32.10
2019-05-01T08:09:50.334Z,32.40
2019-05-01T08:12:18.966Z,31.30
2019-05-01T08:14:52.321Z,30.10
2019-05-01T08:17:20.367Z,28.70
2019-05-01T08:19:54.566Z,27.70
2019-05-01T08:22:26.209Z,26.00
2019-05-01T08:24:58.597Z,26.20
2019-05-01T08:27:32.204Z,26.60
2019-05-01T08:30:20.347Z,26.30
2019-05-01T08:32:57.700Z,28.40
2019-05-01T08:35:31.737Z,28.20
2019-05-01T08:38:00.071Z,29.30
2019-05-01T08:40:31.528Z,29.80
2019-05-01T08:43:00.215Z,30.40
2019-05-01T08:46:11.905Z,29.60
2019-05-01T08:48:47.985Z,29.30
2019-05-01T08:51:16.666Z,29.60
2019-05-01T08:53:45.365Z,29.20
2019-05-01T08:56:16.984Z,29.20
2019-05-01T08:58:44.754Z,29.00
2019-05-01T09:01:16.426Z,28.70
2019-05-01T09:03:45.036Z,28.70
2019-05-01T09:06:13.690Z,28.50
2019-05-01T09:08:42.343Z,28.00
2019-05-01T09:11:11.035Z,27.90
2019-05-01T09:13:39.746Z,28.20
2019-05-01T09:16:08.144Z,27.70
2019-05-01T09:18:36.846Z,27.50
2019-05-01T09:21:05.532Z,27.40
2019-05-01T09:23:34.766Z,26.60
2019-05-01T09:26:22.951Z,26.20
2019-05-01T09:28:57.263Z,25.60
2019-05-01T09:31:27.763Z,26.10
2019-05-01T09:33:56.611Z,25.60
2019-05-01T09:36:25.463Z,25.90
2019-05-01T09:38:54.252Z,26.40
2019-05-01T09:41:37.437Z,25.00
2019-05-01T09:43:54.901Z,26.00
2019-05-01T09:46:25.751Z,25.80
2019-05-01T09:48:54.338Z,26.90
2019-05-01T09:51:49.342Z,26.00
2019-05-01T09:54:43.068Z,26.20
2019-05-01T09:57:11.113Z,27.10
2019-05-01T09:59:40.298Z,27.00
2019-05-01T10:02:09.218Z,26.50
2019-05-01T10:04:37.546Z,26.10
2019-05-01T10:07:07.388Z,26.90
2019-05-01T10:09:36.143Z,26.90
2019-05-01T10:12:04.931Z,25.80
2019-05-01T10:14:36.321Z,25.40
2019-05-01T10:17:05.540Z,24.90
2019-05-01T10:19:34.420Z,23.40
2019-05-01T10:22:03.756Z,22.50
2019-05-01T10:24:37.522Z,22.40
2019-05-01T10:27:04.855Z,20.70
2019-05-01T10:30:01.641Z,20.50
2019-05-01T10:32:37.053Z,20.70
2019-05-01T10:35:19.163Z,19.90
2019-05-01T10:37:48.127Z,19.60
2019-05-01T10:40:17.162Z,20.00
2019-05-01T10:42:46.329Z,20.00
2019-05-01T10:45:15.170Z,19.30
2019-05-01T10:47:45.542Z,19.80
2019-05-01T10:50:14.290Z,20.10
2019-05-01T10:52:43.203Z,20.00
2019-05-01T10:55:12.065Z,18.80
2019-05-01T10:57:42.150Z,20.20
2019-05-01T11:00:11.243Z,19.60
2019-05-01T11:02:40.093Z,19.50
2019-05-01T11:05:09.326Z,19.50
2019-05-01T11:07:37.916Z,20.10
2019-05-01T11:10:07.494Z,19.90
2019-05-01T11:12:36.065Z,19.10
2019-05-01T11:15:05.473Z,18.10
2019-05-01T11:17:34.146Z,19.60
2019-05-01T11:20:03.873Z,19.40
2019-05-01T11:22:32.378Z,19.10
2019-05-01T11:25:01.941Z,19.30
2019-05-01T11:27:30.695Z,20.40
2019-05-01T11:29:59.723Z,20.40
2019-05-01T11:32:51.566Z,20.50
2019-05-01T11:35:40.286Z,20.60
2019-05-01T11:38:20.515Z,20.50
2019-05-01T11:40:54.177Z,21.00
2019-05-01T11:43:25.181Z,22.10
2019-05-01T11:45:53.893Z,22.10
2019-05-01T11:48:25.003Z,21.70
2019-05-01T11:50:55.253Z,22.20
2019-05-01T11:53:23.865Z,22.30
2019-05-01T11:55:52.642Z,22.20
2019-05-01T11:58:21.254Z,21.20
2019-05-01T12:00:51.926Z,20.70
2019-05-01T12:03:20.415Z,20.00
2019-05-01T12:05:49.210Z,20.40
2019-05-01T12:08:17.994Z,20.60
2019-05-01T12:10:46.555Z,20.00
2019-05-01T12:13:15.235Z,20.50
2019-05-01T12:15:45.851Z,20.40
2019-05-01T12:18:14.408Z,20.70
2019-05-01T12:20:42.907Z,20.50
2019-05-01T12:23:11.820Z,19.90
2019-05-01T12:25:40.219Z,19.50
2019-05-01T12:28:08.904Z,20.00
2019-05-01T12:30:38.118Z,20.50
2019-05-01T12:33:06.899Z,20.50
2019-05-01T12:35:36.588Z,21.70
2019-05-01T12:38:05.169Z,21.60
2019-05-01T12:40:34.153Z,21.50
2019-05-01T12:43:02.969Z,20.90
2019-05-01T12:45:31.561Z,20.80
2019-05-01T12:48:02.692Z,20.10
2019-05-01T12:50:33.578Z,20.60
2019-05-01T12:53:36.790Z,20.60
2019-05-01T12:56:31.156Z,19.90
2019-05-01T12:58:59.806Z,20.60
2019-05-01T13:01:28.795Z,20.70
2019-05-01T13:03:57.167Z,20.50
2019-05-01T13:06:26.227Z,20.90
2019-05-01T13:08:54.634Z,20.90
2019-05-01T13:11:23.348Z,21.80
2019-05-01T13:13:51.866Z,21.40
2019-05-01T13:16:20.634Z,21.20
2019-05-01T13:18:49.669Z,21.20
2019-05-01T13:21:18.251Z,21.10
2019-05-01T13:23:46.792Z,20.40
2019-05-01T13:26:33.948Z,20.40
2019-05-01T13:29:40.446Z,19.50
2019-05-01T13:32:16.674Z,20.10
2019-05-01T13:34:45.688Z,20.00
2019-05-01T13:37:15.252Z,20.10
2019-05-01T13:39:43.999Z,19.80
2019-05-01T13:42:12.720Z,19.70
2019-05-01T13:44:41.265Z,19.60
2019-05-01T13:47:11.633Z,19.80
2019-05-01T13:49:40.199Z,19.90
2019-05-01T13:52:10.289Z,19.80
2019-05-01T13:54:39.147Z,19.70
2019-05-01T13:57:08.014Z,19.60
2019-05-01T13:59:36.871Z,19.40
2019-05-01T14:02:05.563Z,18.80
2019-05-01T14:04:34.511Z,19.30
2019-05-01T14:07:15.747Z,19.30
2019-05-01T14:09:34.949Z,18.70
2019-05-01T14:12:04.072Z,19.00
2019-05-01T14:14:32.640Z,19.00
2019-05-01T14:17:02.106Z,17.70
2019-05-01T14:19:31.953Z,17.20
2019-05-01T14:22:19.444Z,17.90
2019-05-01T14:24:50.722Z,17.00
2019-05-01T14:27:19.118Z,17.00
2019-05-01T14:29:48.154Z,16.50
2019-05-01T14:32:18.005Z,16.00
2019-05-01T14:34:50.415Z,16.50
2019-05-01T14:37:29.452Z,16.60
2019-05-01T14:39:57.333Z,16.50
2019-05-01T14:42:29.795Z,16.80
2019-05-01T14:45:02.553Z,17.60
2019-05-01T14:47:34.804Z,17.10
2019-05-01T14:50:04.731Z,16.60
2019-05-01T14:52:35.473Z,17.10
2019-05-01T14:55:05.848Z,18.10
2019-05-01T14:57:33.906Z,18.10
2019-05-01T15:00:02.857Z,17.60
2019-05-01T15:02:31.707Z,18.00
2019-05-01T15:05:00.151Z,18.00
2019-05-01T15:07:42.465Z,18.90
2019-05-01T15:09:59.709Z,19.00
2019-05-01T15:12:28.640Z,19.40
2019-05-01T15:15:26.530Z,18.60
2019-05-01T15:18:07.090Z,18.60
2019-05-01T15:20:35.999Z,18.20
2019-05-01T15:23:06.088Z,19.20
2019-05-01T15:25:35.264Z,19.00
2019-05-01T15:28:05.275Z,19.80
2019-05-01T15:30:33.992Z,20.30
2019-05-01T15:33:02.766Z,20.70
2019-05-01T15:35:33.169Z,21.10
2019-05-01T15:38:05.923Z,20.40
2019-05-01T15:40:44.046Z,20.30
2019-05-01T15:43:28.465Z,20.00
2019-05-01T15:45:57.217Z,19.70
2019-05-01T15:48:26.712Z,20.00
2019-05-01T15:50:55.556Z,19.80
2019-05-01T15:53:26.190Z,19.90
2019-05-01T15:55:55.735Z,20.90
2019-05-01T15:58:24.273Z,20.70
2019-05-01T16:00:53.446Z,20.40
2019-05-01T16:03:22.005Z,20.60
2019-05-01T16:05:50.767Z,20.30
2019-05-01T16:08:19.318Z,20.00
2019-05-01T16:11:03.124Z,20.30
2019-05-01T16:13:32.397Z,21.00
2019-05-01T16:16:02.365Z,20.50
2019-05-01T16:18:31.057Z,20.50
2019-05-01T16:21:00.039Z,20.70
2019-05-01T16:23:29.403Z,20.80
2019-05-01T16:25:58.052Z,21.10
2019-05-01T16:28:26.638Z,21.20
2019-05-01T16:30:57.003Z,21.50
2019-05-01T16:33:25.883Z,21.10
2019-05-01T16:35:54.947Z,21.20
2019-05-01T16:38:33.599Z,21.50
2019-05-01T16:41:05.844Z,21.20
2019-05-01T16:43:34.806Z,21.50
2019-05-01T16:46:04.050Z,22.20
2019-05-01T16:48:33.862Z,21.50
2019-05-01T16:51:03.065Z,21.80
2019-05-01T16:53:34.234Z,21.80
2019-05-01T16:56:03.140Z,21.80
2019-05-01T16:58:33.299Z,21.80
2019-05-01T17:01:24.539Z,21.80
2019-05-01T17:04:10.787Z,22.20
2019-05-01T17:07:01.807Z,22.30
2019-05-01T17:09:50.488Z,22.10
2019-05-01T17:12:22.460Z,22.20
2019-05-01T17:14:51.362Z,22.50
2019-05-01T17:17:21.770Z,22.70
2019-05-01T17:19:50.657Z,22.90
2019-05-01T17:22:19.392Z,23.00
2019-05-01T17:24:48.011Z,23.20
2019-05-01T17:27:16.856Z,23.60
2019-05-01T17:29:45.355Z,23.60
2019-05-01T17:32:16.475Z,24.20
2019-05-01T17:34:45.549Z,24.60
2019-05-01T17:37:14.244Z,24.80
2019-05-01T17:39:43.274Z,24.80
2019-05-01T17:42:11.957Z,24.80
2019-05-01T17:44:40.616Z,24.90
2019-05-01T17:47:09.315Z,24.80
2019-05-01T17:49:41.011Z,24.80
2019-05-01T17:52:10.058Z,25.20
2019-05-01T17:54:40.901Z,25.00
2019-05-01T17:57:09.606Z,25.00
2019-05-01T17:59:38.166Z,25.10
2019-05-01T18:02:32.379Z,25.30
2019-05-01T18:05:32.243Z,25.40
2019-05-01T18:08:01.892Z,25.80
2019-05-01T18:10:34.055Z,25.90
2019-05-01T18:13:02.211Z,26.10
2019-05-01T18:15:30.559Z,26.10
2019-05-01T18:17:59.597Z,26.30
2019-05-01T18:20:28.633Z,26.50
2019-05-01T18:23:13.540Z,26.60
2019-05-01T18:25:46.098Z,26.60
2019-05-01T18:28:30.097Z,26.80
2019-05-01T18:30:59.032Z,27.10
2019-05-01T18:33:27.950Z,27.10
2019-05-01T18:35:56.905Z,27.40
2019-05-01T18:38:47.639Z,27.30
2019-05-01T18:41:22.985Z,27.40
2019-05-01T18:43:51.610Z,27.60
2019-05-01T18:46:20.379Z,27.30
2019-05-01T18:48:49.164Z,27.60
2019-05-01T18:51:19.597Z,27.90
2019-05-01T18:53:48.422Z,28.10
2019-05-01T18:56:18.553Z,28.40
2019-05-01T18:58:47.461Z,28.70
2019-05-01T19:01:16.475Z,28.70
2019-05-01T19:03:45.067Z,29.00
2019-05-01T19:06:13.498Z,29.30
2019-05-01T19:08:42.235Z,29.40
2019-05-01T19:11:13.083Z,29.50
2019-05-01T19:13:41.660Z,29.60
2019-05-01T19:16:10.650Z,29.70
2019-05-01T19:18:38.994Z,29.90
2019-05-01T19:21:08.039Z,30.00
2019-05-01T19:23:36.755Z,30.40
2019-05-01T19:26:06.771Z,30.70
2019-05-01T19:28:35.633Z,30.90
2019-05-01T19:31:04.578Z,31.20
2019-05-01T19:33:33.285Z,31.20
2019-05-01T19:36:08.183Z,31.20
2019-05-01T19:38:34.902Z,31.20
2019-05-01T19:41:08.891Z,32.10
2019-05-01T19:43:40.452Z,31.70
2019-05-01T19:46:07.593Z,32.20
2019-05-01T19:48:36.126Z,32.20
2019-05-01T19:51:04.898Z,32.60
2019-05-01T19:53:33.465Z,32.90
2019-05-01T19:56:02.176Z,33.10
2019-05-01T19:58:32.497Z,33.70
2019-05-01T20:01:04.467Z,34.20
2019-05-01T20:03:36.223Z,34.40
2019-05-01T20:06:06.092Z,35.40
2019-05-01T20:08:36.444Z,34.90
2019-05-01T20:11:05.737Z,35.10
2019-05-01T20:13:35.705Z,35.00
2019-05-01T20:16:06.981Z,34.80
2019-05-01T20:18:35.801Z,35.10
2019-05-01T20:21:05.703Z,35.90
2019-05-01T20:23:35.892Z,36.50
2019-05-01T20:26:04.927Z,37.40
2019-05-01T20:28:37.405Z,37.40
2019-05-01T20:31:06.289Z,38.00
2019-05-01T20:33:39.093Z,38.20
2019-05-01T20:36:06.598Z,38.90
2019-05-01T20:38:35.686Z,39.30
2019-05-01T20:41:04.553Z,39.60
2019-05-01T20:43:33.574Z,40.60
2019-05-01T20:46:02.957Z,41.10
2019-05-01T20:48:33.096Z,41.60
2019-05-01T20:51:02.408Z,42.30
2019-05-01T20:53:32.458Z,43.20
2019-05-01T20:56:12.405Z,43.40
2019-05-01T20:58:43.431Z,42.60
2019-05-01T21:01:12.042Z,42.20
2019-05-01T21:03:44.099Z,41.90
2019-05-01T21:06:18.402Z,42.50
2019-05-01T21:09:08.289Z,42.60
2019-05-01T21:11:42.263Z,43.20
2019-05-01T21:14:20.047Z,43.90
2019-05-01T21:16:43.840Z,44.80
2019-05-01T21:19:12.724Z,45.10
2019-05-01T21:21:43.330Z,44.00
2019-05-01T21:24:13.631Z,44.30
2019-05-01T21:26:43.398Z,46.90
2019-05-01T21:29:14.550Z,46.00
2019-05-01T21:31:44.091Z,45.90
2019-05-01T21:34:14.559Z,46.20
2019-05-01T21:36:47.373Z,47.60
2019-05-01T21:39:14.962Z,46.00
2019-05-01T21:41:44.595Z,44.80
2019-05-01T21:44:13.259Z,45.70
2019-05-01T21:46:43.195Z,45.80
2019-05-01T21:49:13.031Z,46.00
2019-05-01T21:51:45.931Z,45.70
2019-05-01T21:54:16.069Z,45.10
2019-05-01T21:56:44.911Z,46.40
2019-05-01T21:59:15.114Z,46.50
2019-05-01T22:01:44.329Z,48.10
2019-05-01T22:04:14.272Z,47.20
2019-05-01T22:06:46.767Z,47.20
2019-05-01T22:09:18.567Z,48.20
2019-05-01T22:11:47.220Z,48.20
2019-05-01T22:14:42.049Z,48.10
2019-05-01T22:17:19.238Z,48.60
2019-05-01T22:19:48.084Z,48.30
2019-05-01T22:22:28.796Z,48.40
2019-05-01T22:25:09.983Z,48.50
2019-05-01T22:27:42.773Z,48.90
2019-05-01T22:30:35.265Z,49.20
2019-05-01T22:33:04.576Z,49.10
2019-05-01T22:35:36.275Z,48.90
2019-05-01T22:38:05.686Z,48.80
2019-05-01T22:40:44.236Z,48.80
2019-05-01T22:43:12.818Z,48.90
2019-05-01T22:45:41.469Z,49.10
2019-05-01T22:48:10.795Z,48.80
2019-05-01T22:50:39.423Z,48.80
2019-05-01T22:53:12.836Z,48.80
2019-05-01T22:55:38.621Z,48.90
2019-05-01T22:58:09.182Z,49.20
2019-05-01T23:00:44.301Z,50.30
2019-05-01T23:03:19.772Z,50.20
2019-05-01T23:05:48.736Z,50.40
2019-05-01T23:08:17.274Z,51.20
2019-05-01T23:10:46.928Z,51.50
2019-05-01T23:13:16.767Z,52.20
2019-05-01T23:15:45.650Z,53.60
2019-05-01T23:18:15.592Z,54.20
2019-05-01T23:20:44.617Z,54.70
2019-05-01T23:23:13.075Z,55.40
2019-05-01T23:25:42.417Z,55.50
2019-05-01T23:28:11.226Z,56.50
2019-05-01T23:30:40.129Z,56.90
2019-05-01T23:33:08.619Z,57.00
2019-05-01T23:35:37.354Z,57.60
2019-05-01T23:38:06.036Z,58.30
2019-05-01T23:40:35.235Z,59.20
2019-05-01T23:43:04.840Z,59.90
2019-05-01T23:45:33.385Z,59.60
2019-05-01T23:48:02.399Z,60.50
2019-05-01T23:50:32.259Z,60.60
2019-05-01T23:53:01.155Z,61.40
2019-05-01T23:55:30.817Z,62.40
2019-05-01T23:57:59.484Z,62.00
